Time;durP1;ratioP1;P1;durP2;ratioP2;P2;SDS_P1;SDS_P2;PMS_P1;PMS_P2;Temp;Humidity;BMP_temperature;BMP_pressure;BME280_temperature;BME280_humidity;BME280_pressure;Samples;Min_cycle;Max_cycle;Signal;HPM_P1;HPM_P2
2022/09/19 00:01:14;;;;;;;3.90;2.17;;;9.70;99.90;;;;;;5038325;28;20403;-77
2022/09/19 00:03:41;;;;;;;6.37;2.63;;;9.60;99.90;;;;;;5038499;28;20407;-77
2022/09/19 00:06:09;;;;;;;2.70;2.00;;;9.60;99.90;;;;;;5036552;28;20461;-77
2022/09/19 00:08:37;;;;;;;1.27;1.17;;;9.60;99.90;;;;;;5036536;28;20510;-77
2022/09/19 00:11:05;;;;;;;4.33;2.13;;;9.60;99.90;;;;;;5057484;28;20495;-77
2022/09/19 00:13:32;;;;;;;6.13;4.60;;;9.60;99.90;;;;;;5058955;28;20489;-77
2022/09/19 00:15:58;;;;;;;2.80;2.30;;;9.50;99.90;;;;;;5040422;28;20575;-77
2022/09/19 00:18:24;;;;;;;2.90;2.60;;;9.50;99.90;;;;;;5059048;28;20464;-77
2022/09/19 00:20:50;;;;;;;1.97;1.50;;;9.40;99.90;;;;;;5058876;28;20905;-77
2022/09/19 00:26:06;;;;;;;2.90;1.30;;;9.50;99.90;;;;;;5059333;28;20202;-77
2022/09/19 00:28:32;;;;;;;2.20;1.53;;;9.50;99.90;;;;;;5058084;28;20430;-77
2022/09/19 00:31:00;;;;;;;1.90;1.60;;;9.50;99.90;;;;;;5056712;28;20413;-77
2022/09/19 00:33:30;;;;;;;1.93;1.50;;;9.40;99.90;;;;;;5055837;28;20463;-77
2022/09/19 00:35:56;;;;;;;3.63;1.63;;;9.40;99.90;;;;;;5039972;28;20422;-77
2022/09/19 00:38:24;;;;;;;4.30;1.70;;;9.30;99.90;;;;;;5040240;28;20455;-77
2022/09/19 00:40:51;;;;;;;2.07;1.80;;;9.30;99.90;;;;;;5038667;28;20403;-77
2022/09/19 00:43:19;;;;;;;3.13;1.77;;;9.30;99.90;;;;;;5046214;28;20420;-77
2022/09/19 00:45:45;;;;;;;2.70;1.97;;;9.30;99.90;;;;;;5041783;28;20423;-78
2022/09/19 00:48:13;;;;;;;8.23;1.83;;;9.30;99.90;;;;;;5036020;28;20524;-78
2022/09/19 00:50:39;;;;;;;2.37;2.17;;;9.30;99.90;;;;;;5035773;28;20412;-78
2022/09/19 00:53:12;;;;;;;4.80;2.10;;;9.20;99.90;;;;;;5042522;28;20408;-77
2022/09/19 00:55:39;;;;;;;2.10;1.90;;;9.20;99.90;;;;;;5045551;28;20414;-77
2022/09/19 00:58:23;;;;;;;5.53;2.30;;;9.10;99.90;;;;;;5045958;28;20472;-77
2022/09/19 01:00:49;;;;;;;4.30;1.67;;;9.10;99.90;;;;;;5018017;28;20757;-77
2022/09/19 01:03:14;;;;;;;3.30;1.80;;;9.10;99.90;;;;;;5040295;28;20430;-77
2022/09/19 01:06:19;;;;;;;2.87;1.97;;;9.10;99.90;;;;;;5034361;28;20398;-78
2022/09/19 01:08:55;;;;;;;4.03;1.87;;;9.10;99.90;;;;;;4995929;28;20199;-78
2022/09/19 01:11:26;;;;;;;4.47;2.10;;;9.10;99.90;;;;;;5033897;28;20414;-78
2022/09/19 01:14:25;;;;;;;2.23;2.03;;;9.10;99.90;;;;;;5037572;28;20404;-78
2022/09/19 01:16:56;;;;;;;3.17;2.50;;;9.10;99.90;;;;;;5038509;28;20413;-78
2022/09/19 01:19:43;;;;;;;7.63;2.40;;;9.10;99.90;;;;;;5039249;28;20479;-78
2022/09/19 01:22:22;;;;;;;5.63;2.07;;;9.10;99.90;;;;;;5016966;28;20416;-78
2022/09/19 01:24:56;;;;;;;6.70;3.87;;;9.00;99.90;;;;;;5034335;28;20430;-77
2022/09/19 01:27:43;;;;;;;6.63;2.83;;;9.10;99.90;;;;;;5034118;28;20928;-77
2022/09/19 01:30:11;;;;;;;3.10;2.40;;;9.10;99.90;;;;;;5034153;28;20924;-78
2022/09/19 01:32:59;;;;;;;6.30;3.77;;;9.10;99.90;;;;;;5034277;28;20419;-77
2022/09/19 01:35:30;;;;;;;7.13;2.80;;;9.10;99.90;;;;;;5034458;28;20406;-77
2022/09/19 01:38:18;;;;;;;2.80;2.50;;;9.10;99.90;;;;;;5033872;28;20905;-77
2022/09/19 01:40:45;;;;;;;2.70;2.43;;;9.10;99.90;;;;;;5034296;28;20889;-77
2022/09/19 01:43:16;;;;;;;3.60;2.10;;;9.10;99.90;;;;;;5033550;28;20417;-77
2022/09/19 01:45:43;;;;;;;4.60;2.37;;;9.10;99.90;;;;;;5032459;28;20420;-78
2022/09/19 01:48:32;;;;;;;3.13;2.43;;;9.10;99.90;;;;;;5034029;28;20423;-77
2022/09/19 01:51:06;;;;;;;3.13;1.93;;;9.00;99.90;;;;;;5034385;28;20914;-77
2022/09/19 01:53:49;;;;;;;4.50;2.40;;;9.00;99.90;;;;;;5037369;28;20406;-77
2022/09/19 01:56:28;;;;;;;2.07;1.87;;;9.00;99.90;;;;;;5037316;28;20763;-77
2022/09/19 01:59:14;;;;;;;6.27;2.50;;;9.00;99.90;;;;;;5039941;28;20529;-76
2022/09/19 02:01:47;;;;;;;4.70;2.70;;;9.00;99.90;;;;;;5038522;28;20435;-77
2022/09/19 02:04:16;;;;;;;2.97;2.77;;;9.00;99.90;;;;;;5038083;28;20410;-77
2022/09/19 02:06:48;;;;;;;2.80;2.20;;;9.00;99.90;;;;;;5024332;28;20426;-77
2022/09/19 02:09:30;;;;;;;3.00;2.00;;;9.00;99.90;;;;;;5040449;28;20460;-77
2022/09/19 02:12:00;;;;;;;6.27;2.90;;;9.10;99.90;;;;;;5037664;28;20409;-77
2022/09/19 02:14:30;;;;;;;2.87;2.33;;;9.00;99.90;;;;;;5039380;28;20388;-77
2022/09/19 02:17:07;;;;;;;3.60;2.40;;;9.10;99.90;;;;;;5038922;28;20411;-78
2022/09/19 02:19:38;;;;;;;3.10;2.33;;;9.00;99.90;;;;;;5039710;28;20825;-78
2022/09/19 02:22:10;;;;;;;5.73;2.77;;;9.10;99.90;;;;;;5043889;28;20419;-77
2022/09/19 02:24:38;;;;;;;3.83;2.70;;;9.10;99.90;;;;;;5039587;28;20399;-78
2022/09/19 02:27:09;;;;;;;11.73;3.37;;;9.00;99.90;;;;;;5036630;28;20406;-77
2022/09/19 02:29:45;;;;;;;4.53;3.30;;;8.90;99.90;;;;;;5036750;28;20435;-77
2022/09/19 02:32:11;;;;;;;3.73;3.10;;;9.00;99.90;;;;;;5018867;28;20414;-77
2022/09/19 02:34:37;;;;;;;2.90;2.60;;;9.00;99.90;;;;;;5027574;28;20419;-77
2022/09/19 02:37:15;;;;;;;4.20;2.73;;;8.90;99.90;;;;;;5046256;28;20175;-77
2022/09/19 02:39:51;;;;;;;3.70;3.27;;;9.00;99.90;;;;;;5046543;28;20204;-77
2022/09/19 02:42:33;;;;;;;5.37;3.83;;;9.00;99.90;;;;;;5041325;28;20382;-78
2022/09/19 02:45:27;;;;;;;6.53;2.77;;;9.00;99.90;;;;;;5036334;28;20763;-77
2022/09/19 02:48:11;;;;;;;3.70;3.27;;;9.10;99.90;;;;;;5036758;28;20434;-77
2022/09/19 02:50:47;;;;;;;4.00;2.97;;;9.10;99.90;;;;;;5036239;28;20969;-77
2022/09/19 02:53:17;;;;;;;3.23;2.90;;;9.10;99.90;;;;;;5036291;28;20873;-77
2022/09/19 02:55:50;;;;;;;7.40;3.80;;;9.10;99.90;;;;;;5035707;28;20399;-77
2022/09/19 02:58:17;;;;;;;3.60;2.90;;;9.20;99.90;;;;;;5036108;28;20478;-77
2022/09/19 03:00:48;;;;;;;4.40;3.33;;;9.10;99.90;;;;;;5036044;28;20496;-77
2022/09/19 03:06:07;;;;;;;8.27;3.20;;;9.10;99.90;;;;;;5036068;28;20442;-77
2022/09/19 03:08:36;;;;;;;5.53;2.90;;;9.20;99.90;;;;;;5036516;28;20428;-78
2022/09/19 03:11:07;;;;;;;3.00;2.43;;;9.10;99.90;;;;;;5041626;28;20465;-77
2022/09/19 03:13:33;;;;;;;3.13;2.83;;;9.20;99.90;;;;;;5040228;28;20403;-77
2022/09/19 03:16:21;;;;;;;3.33;3.00;;;9.20;99.90;;;;;;5036187;28;20424;-77
2022/09/19 03:18:56;;;;;;;2.87;2.60;;;9.20;99.90;;;;;;5017803;28;20461;-77
2022/09/19 03:21:24;;;;;;;4.17;2.50;;;9.20;99.90;;;;;;5035694;28;20399;-77
2022/09/19 03:23:58;;;;;;;3.90;3.43;;;9.30;99.90;;;;;;5039043;28;20791;-77
2022/09/19 03:26:28;;;;;;;10.00;4.00;;;9.30;99.90;;;;;;5035448;28;20389;-78
2022/09/19 03:28:54;;;;;;;3.07;2.77;;;9.30;99.90;;;;;;5035119;28;20438;-78
2022/09/19 03:31:21;;;;;;;3.40;3.10;;;9.40;99.90;;;;;;5017383;28;20419;-78
2022/09/19 03:33:48;;;;;;;3.80;3.37;;;9.40;99.90;;;;;;5017764;28;20957;-77
2022/09/19 03:36:14;;;;;;;3.23;2.97;;;9.40;99.90;;;;;;5035704;28;20417;-78
2022/09/19 03:38:44;;;;;;;3.70;3.30;;;9.40;99.90;;;;;;5034137;28;20462;-77
2022/09/19 03:41:15;;;;;;;6.10;3.80;;;9.40;99.90;;;;;;5035095;28;20782;-78
2022/09/19 03:43:42;;;;;;;6.67;4.20;;;9.40;99.90;;;;;;5034265;28;20402;-77
2022/09/19 03:46:11;;;;;;;4.30;3.33;;;9.40;99.90;;;;;;5016364;28;20497;-77
2022/09/19 03:48:40;;;;;;;5.07;3.00;;;9.40;99.90;;;;;;5034012;28;20518;-77
2022/09/19 03:51:06;;;;;;;5.80;4.10;;;9.50;99.90;;;;;;5034016;28;20456;-77
2022/09/19 03:53:32;;;;;;;7.47;4.27;;;9.40;99.90;;;;;;5033958;28;20447;-77
2022/09/19 03:55:58;;;;;;;6.90;4.33;;;9.40;99.90;;;;;;5016589;28;20927;-77
2022/09/19 03:58:24;;;;;;;4.90;4.27;;;9.40;99.90;;;;;;5035126;28;20198;-77
2022/09/19 04:00:50;;;;;;;4.50;3.97;;;9.50;99.90;;;;;;5035044;28;20757;-77
2022/09/19 04:03:23;;;;;;;4.57;3.90;;;9.50;99.90;;;;;;5034340;28;20180;-77
2022/09/19 04:05:48;;;;;;;6.90;3.20;;;9.50;99.90;;;;;;5037408;28;20418;-77
2022/09/19 04:08:14;;;;;;;4.00;3.30;;;9.60;99.90;;;;;;5040999;28;20428;-77
2022/09/19 04:10:42;;;;;;;3.33;3.03;;;9.60;99.90;;;;;;5017534;28;20199;-77
2022/09/19 04:13:08;;;;;;;4.87;3.37;;;9.50;99.90;;;;;;5033605;28;20251;-77
2022/09/19 04:15:34;;;;;;;4.87;3.43;;;9.60;99.90;;;;;;5033175;28;20414;-77
2022/09/19 04:18:00;;;;;;;4.90;3.73;;;9.60;99.90;;;;;;5033222;28;20468;-77
2022/09/19 04:20:29;;;;;;;5.60;3.83;;;9.60;99.90;;;;;;5034246;28;20200;-77
2022/09/19 04:22:57;;;;;;;4.30;3.90;;;9.60;99.90;;;;;;5035657;28;20156;-77
2022/09/19 04:25:22;;;;;;;5.60;3.80;;;9.60;99.90;;;;;;5037454;28;20475;-77
2022/09/19 04:27:49;;;;;;;5.50;3.40;;;9.60;99.90;;;;;;5035565;28;20434;-77
2022/09/19 04:30:15;;;;;;;4.37;3.90;;;9.60;99.90;;;;;;5036677;28;20167;-77
2022/09/19 04:32:41;;;;;;;6.40;3.67;;;9.60;99.90;;;;;;5036323;28;20411;-77
2022/09/19 04:35:07;;;;;;;3.63;3.33;;;9.60;99.90;;;;;;5038289;28;20170;-77
2022/09/19 04:37:32;;;;;;;4.07;3.53;;;9.70;99.90;;;;;;5043987;28;20394;-77
2022/09/19 04:39:58;;;;;;;3.73;3.20;;;9.70;99.90;;;;;;5043778;28;20213;-77
2022/09/19 04:42:23;;;;;;;5.63;4.00;;;9.70;99.90;;;;;;5042728;28;20829;-77
2022/09/19 04:44:49;;;;;;;8.13;4.47;;;9.70;99.90;;;;;;5037049;28;20176;-78
2022/09/19 04:47:15;;;;;;;5.90;4.00;;;9.70;99.90;;;;;;5038009;28;20178;-78
2022/09/19 04:49:41;;;;;;;4.90;3.40;;;9.80;99.90;;;;;;5039330;28;20192;-78
2022/09/19 04:52:09;;;;;;;6.80;4.37;;;9.80;99.90;;;;;;5037768;28;20411;-78
2022/09/19 04:54:36;;;;;;;5.80;4.30;;;9.80;99.90;;;;;;5034358;28;20408;-77
2022/09/19 04:57:05;;;;;;;4.17;3.87;;;9.80;99.90;;;;;;5034100;28;20420;-77
2022/09/19 04:59:30;;;;;;;6.00;3.83;;;9.80;99.90;;;;;;5033622;28;20453;-77
2022/09/19 05:01:57;;;;;;;6.60;4.50;;;9.80;99.90;;;;;;5034114;28;20412;-77
2022/09/19 05:04:24;;;;;;;4.47;4.00;;;9.80;99.90;;;;;;5033855;28;20218;-77
2022/09/19 05:06:51;;;;;;;6.60;4.00;;;9.80;99.90;;;;;;5034401;28;20416;-77
2022/09/19 05:09:17;;;;;;;5.00;4.43;;;9.80;99.90;;;;;;5034459;28;20878;-77
2022/09/19 05:11:43;;;;;;;7.40;4.20;;;9.90;99.90;;;;;;5037685;28;20424;-77
2022/09/19 05:14:09;;;;;;;8.10;3.67;;;9.90;99.90;;;;;;5019504;28;20613;-77
2022/09/19 05:16:35;;;;;;;6.07;3.77;;;9.90;99.90;;;;;;5035702;28;20493;-77
2022/09/19 05:19:00;;;;;;;5.27;3.93;;;9.90;99.90;;;;;;5032446;28;20213;-77
2022/09/19 05:21:26;;;;;;;5.43;4.10;;;9.90;99.90;;;;;;5032491;28;20254;-77
2022/09/19 05:23:52;;;;;;;4.50;3.83;;;10.00;99.90;;;;;;5032250;28;20172;-77
2022/09/19 05:26:17;;;;;;;5.23;4.70;;;10.00;99.90;;;;;;5031332;28;20417;-77
2022/09/19 05:28:45;;;;;;;5.07;4.23;;;10.00;99.90;;;;;;5032200;28;20252;-77
2022/09/19 05:31:12;;;;;;;4.97;4.07;;;10.00;99.90;;;;;;5032228;28;20198;-77
2022/09/19 05:33:38;;;;;;;4.97;4.47;;;10.10;99.90;;;;;;5032173;28;20411;-77
2022/09/19 05:36:05;;;;;;;5.77;3.80;;;10.10;99.90;;;;;;5032181;28;20412;-77
2022/09/19 05:38:32;;;;;;;6.37;3.93;;;10.20;99.90;;;;;;5033269;28;20450;-77
2022/09/19 05:41:00;;;;;;;5.03;4.33;;;10.20;99.90;;;;;;5032626;28;20416;-77
2022/09/19 05:43:26;;;;;;;8.67;5.00;;;10.30;99.90;;;;;;5032504;28;20407;-77
2022/09/19 05:45:54;;;;;;;9.63;4.30;;;10.30;99.90;;;;;;5032557;28;20440;-77
2022/09/19 05:48:21;;;;;;;6.63;3.80;;;10.30;99.90;;;;;;5036172;28;20773;-78
2022/09/19 05:50:47;;;;;;;8.63;4.37;;;10.20;99.90;;;;;;5035363;28;20912;-78
2022/09/19 05:55:59;;;;;;;4.13;3.73;;;10.30;99.90;;;;;;5038991;28;20409;-77
2022/09/19 05:58:25;;;;;;;3.80;2.90;;;10.30;99.90;;;;;;5033688;28;20839;-76
2022/09/19 06:00:51;;;;;;;7.47;4.10;;;10.40;99.90;;;;;;5032177;28;20401;-77
2022/09/19 06:03:20;;;;;;;4.30;3.43;;;10.40;99.90;;;;;;5031815;28;20398;-77
2022/09/19 06:05:48;;;;;;;4.80;3.57;;;10.40;99.90;;;;;;5031789;28;20490;-77
2022/09/19 06:08:15;;;;;;;4.37;2.97;;;10.40;99.90;;;;;;5031990;28;20483;-77
2022/09/19 06:10:42;;;;;;;3.40;3.10;;;10.50;99.90;;;;;;5031753;28;20399;-77
2022/09/19 06:13:12;;;;;;;5.07;3.07;;;10.50;99.90;;;;;;5032044;28;20780;-77
2022/09/19 06:15:37;;;;;;;5.80;2.73;;;10.50;99.90;;;;;;5031766;28;20412;-76
2022/09/19 06:18:03;;;;;;;3.60;2.80;;;10.60;99.90;;;;;;5031810;28;20891;-77
2022/09/19 06:20:29;;;;;;;2.40;2.20;;;10.60;99.90;;;;;;5031996;28;20176;-76
2022/09/19 06:23:01;;;;;;;4.10;2.83;;;10.70;99.90;;;;;;5032191;28;20793;-77
2022/09/19 06:25:28;;;;;;;3.43;2.83;;;10.70;99.90;;;;;;5032062;28;20704;-77
2022/09/19 06:27:59;;;;;;;2.30;2.10;;;10.70;99.90;;;;;;5032196;28;20416;-76
2022/09/19 06:30:25;;;;;;;5.00;2.83;;;10.80;99.90;;;;;;5032934;28;20387;-77
2022/09/19 06:32:51;;;;;;;6.90;3.10;;;10.70;99.90;;;;;;5040657;28;20407;-77
2022/09/19 06:35:21;;;;;;;2.77;2.53;;;10.80;99.90;;;;;;5042258;28;20410;-77
2022/09/19 06:37:47;;;;;;;4.73;2.90;;;10.80;99.90;;;;;;5043193;28;20179;-77
2022/09/19 06:40:13;;;;;;;3.07;2.07;;;10.90;99.90;;;;;;5048599;28;20461;-78
2022/09/19 06:42:39;;;;;;;3.20;2.80;;;10.90;99.90;;;;;;5040013;28;20409;-78
2022/09/19 06:45:06;;;;;;;2.37;2.17;;;11.10;99.90;;;;;;5036222;28;20492;-78
2022/09/19 06:47:32;;;;;;;3.10;2.47;;;11.10;99.90;;;;;;5036983;28;20178;-78
2022/09/19 06:50:00;;;;;;;3.83;2.70;;;11.30;99.90;;;;;;5038429;28;21050;-77
2022/09/19 06:52:26;;;;;;;4.50;2.00;;;11.30;99.90;;;;;;5037250;28;20415;-78
2022/09/19 06:54:52;;;;;;;3.20;1.80;;;11.30;99.90;;;;;;5037296;28;20422;-77
2022/09/19 06:57:17;;;;;;;1.63;1.53;;;11.40;99.90;;;;;;5038187;28;20593;-77
2022/09/19 06:59:43;;;;;;;5.90;2.40;;;11.40;99.90;;;;;;5039151;28;20225;-77
2022/09/19 07:02:09;;;;;;;4.97;2.30;;;11.40;99.90;;;;;;5039989;28;20179;-77
2022/09/19 07:04:35;;;;;;;1.50;1.33;;;11.40;99.90;;;;;;5036939;28;20167;-78
2022/09/19 07:07:01;;;;;;;3.27;2.60;;;11.50;99.90;;;;;;5036876;28;20979;-77
2022/09/19 07:09:26;;;;;;;2.43;2.23;;;11.60;99.90;;;;;;5036327;28;20187;-78
2022/09/19 07:11:56;;;;;;;2.20;2.00;;;11.60;99.90;;;;;;5036933;28;20486;-77
2022/09/19 07:14:22;;;;;;;2.07;1.90;;;11.70;99.90;;;;;;5037642;28;20172;-78
2022/09/19 07:16:47;;;;;;;2.33;1.83;;;11.70;99.90;;;;;;5023472;28;20437;-78
2022/09/19 07:19:13;;;;;;;2.17;1.97;;;11.80;99.90;;;;;;5036863;28;20215;-78
2022/09/19 07:21:38;;;;;;;5.00;1.97;;;11.80;99.90;;;;;;5036188;28;20570;-77
2022/09/19 07:24:06;;;;;;;4.97;2.33;;;11.80;99.90;;;;;;5035530;28;20224;-78
2022/09/19 07:26:31;;;;;;;2.10;1.70;;;11.90;99.90;;;;;;5035306;28;20171;-78
2022/09/19 07:28:57;;;;;;;2.10;1.60;;;12.00;99.90;;;;;;5036291;28;20430;-78
2022/09/19 07:31:22;;;;;;;4.77;1.77;;;12.00;99.90;;;;;;5036568;28;20257;-78
2022/09/19 07:33:48;;;;;;;2.67;1.87;;;12.10;99.90;;;;;;5036231;28;20176;-78
2022/09/19 07:36:14;;;;;;;4.67;1.93;;;12.10;99.90;;;;;;5037563;28;20184;-78
2022/09/19 07:38:39;;;;;;;2.07;1.50;;;12.20;99.90;;;;;;5041163;28;20196;-77
2022/09/19 07:41:05;;;;;;;4.37;1.70;;;12.20;99.90;;;;;;5038907;28;20256;-77
2022/09/19 07:43:30;;;;;;;1.97;1.60;;;12.20;99.90;;;;;;5036557;28;20164;-77
2022/09/19 07:45:56;;;;;;;1.70;1.43;;;12.30;99.90;;;;;;5017549;28;20262;-78
2022/09/19 07:48:22;;;;;;;1.47;1.37;;;12.40;99.90;;;;;;5034831;28;20238;-77
2022/09/19 07:50:48;;;;;;;1.80;1.70;;;12.30;99.90;;;;;;5033595;28;20203;-77
2022/09/19 07:53:19;;;;;;;1.73;1.63;;;12.40;99.90;;;;;;5034740;28;20909;-77
2022/09/19 07:55:51;;;;;;;3.53;1.97;;;12.40;99.90;;;;;;5037325;28;20419;-77
2022/09/19 07:58:17;;;;;;;3.03;1.43;;;12.50;99.90;;;;;;5013651;28;20826;-77
2022/09/19 08:00:45;;;;;;;4.10;2.50;;;12.60;99.90;;;;;;5014320;28;20399;-77
2022/09/19 08:03:12;;;;;;;5.13;1.83;;;12.70;99.90;;;;;;5014210;28;20184;-77
2022/09/19 08:05:40;;;;;;;1.80;1.70;;;12.90;99.90;;;;;;5014934;28;20415;-77
2022/09/19 08:08:07;;;;;;;1.63;1.40;;;12.90;99.90;;;;;;4997454;28;20426;-77
2022/09/19 08:10:34;;;;;;;2.47;1.20;;;13.00;99.90;;;;;;5015788;28;20410;-77
2022/09/19 08:13:02;;;;;;;1.10;1.03;;;13.20;99.90;;;;;;5016887;28;20789;-78
2022/09/19 08:15:28;;;;;;;2.70;1.53;;;13.20;99.90;;;;;;5013311;28;20473;-77
2022/09/19 08:17:57;;;;;;;3.50;2.87;;;13.30;99.90;;;;;;5046932;28;20421;-78
2022/09/19 08:20:22;;;;;;;3.30;2.13;;;13.30;99.90;;;;;;5064475;22;20257;-71
2022/09/19 08:22:48;;;;;;;1.73;1.63;;;13.50;99.90;;;;;;5053533;28;20418;-70
2022/09/19 08:25:14;;;;;;;1.20;1.10;;;13.40;99.90;;;;;;5053314;28;20179;-71
2022/09/19 08:27:43;;;;;;;1.47;1.30;;;13.50;99.90;;;;;;5052657;28;20163;-71
2022/09/19 08:30:09;;;;;;;1.07;0.97;;;13.60;99.90;;;;;;5068980;28;20426;-71
2022/09/19 08:32:35;;;;;;;2.10;1.13;;;13.50;99.90;;;;;;5072844;28;20484;-71
2022/09/19 08:35:00;;;;;;;4.93;3.00;;;13.90;99.90;;;;;;5072755;28;20400;-70
2022/09/19 08:37:26;;;;;;;2.10;1.20;;;14.10;99.90;;;;;;5072861;28;20667;-70
2022/09/19 08:43:04;;;;;;;1.43;1.23;;;14.40;99.90;;;;;;5072944;28;20172;-70
2022/09/19 08:45:36;;;;;;;3.73;1.10;;;14.50;99.90;;;;;;5072859;28;20401;-70
2022/09/19 08:48:05;;;;;;;1.60;1.40;;;14.40;99.90;;;;;;5072205;28;20428;-69
2022/09/19 08:50:34;;;;;;;3.90;1.47;;;14.30;99.90;;;;;;5076698;28;20470;-71
2022/09/19 08:53:04;;;;;;;2.37;1.30;;;14.50;99.90;;;;;;5092588;28;20483;-71
2022/09/19 08:55:33;;;;;;;1.20;1.10;;;14.70;99.90;;;;;;5092356;28;20799;-70
2022/09/19 08:58:16;;;;;;;1.50;1.40;;;14.90;99.90;;;;;;5092620;28;20823;-70
2022/09/19 09:00:45;;;;;;;2.60;1.00;;;14.40;99.90;;;;;;5092210;28;20399;-70
2022/09/19 09:03:51;;;;;;;2.80;1.60;;;14.30;99.90;;;;;;5092507;28;20404;-70
2022/09/19 09:06:30;;;;;;;1.40;1.10;;;14.40;99.90;;;;;;5003816;28;20408;-70
2022/09/19 09:09:32;;;;;;;9.10;3.57;;;14.50;99.90;;;;;;5092312;28;20435;-70
2022/09/19 09:12:07;;;;;;;1.33;1.23;;;14.90;99.90;;;;;;5092675;28;20388;-71
2022/09/19 09:15:01;;;;;;;1.97;0.80;;;15.30;99.90;;;;;;5092469;28;20404;-70
2022/09/19 09:17:38;;;;;;;1.20;1.10;;;15.50;99.90;;;;;;5080080;28;20498;-69
2022/09/19 09:20:19;;;;;;;1.87;0.90;;;16.20;99.90;;;;;;5071856;28;20458;-73
2022/09/19 09:23:16;;;;;;;2.90;2.07;;;16.10;99.90;;;;;;5072454;28;20457;-73
2022/09/19 09:25:47;;;;;;;5.50;1.97;;;16.40;99.90;;;;;;5048772;28;20459;-71
2022/09/19 09:28:25;;;;;;;1.43;1.27;;;17.10;99.90;;;;;;5034037;28;20465;-73
2022/09/19 09:30:55;;;;;;;1.87;1.40;;;17.00;99.90;;;;;;5064387;28;20401;-72
2022/09/19 09:33:27;;;;;;;1.60;1.00;;;17.40;99.90;;;;;;5072024;28;20518;-73
2022/09/19 09:36:02;;;;;;;6.23;4.50;;;16.70;99.90;;;;;;5071862;28;20398;-71
2022/09/19 09:38:51;;;;;;;4.80;3.23;;;16.90;99.90;;;;;;5071691;28;20449;-71
2022/09/19 09:41:47;;;;;;;0.70;0.70;;;16.90;99.90;;;;;;5072095;28;20415;-72
2022/09/19 09:44:13;;;;;;;6.83;3.70;;;16.90;99.90;;;;;;5071812;28;20477;-72
2022/09/19 09:46:52;;;;;;;1.97;1.63;;;17.00;99.90;;;;;;5071820;28;20456;-71
2022/09/19 09:49:21;;;;;;;3.13;2.47;;;16.60;99.90;;;;;;5069467;28;20186;-71
2022/09/19 09:52:05;;;;;;;1.20;1.10;;;16.20;99.90;;;;;;5051540;28;20480;-72
2022/09/19 09:58:18;;;;;;;1.00;0.80;;;16.00;99.90;;;;;;5052302;28;20425;-72
2022/09/19 10:03:57;;;;;;;1.10;0.90;;;14.70;99.90;;;;;;5068931;28;20391;-72
2022/09/19 10:06:29;;;;;;;1.00;0.73;;;14.20;99.90;;;;;;5069930;28;20463;-71
2022/09/19 10:09:16;;;;;;;1.90;0.80;;;13.80;99.90;;;;;;5071362;28;20833;-71
2022/09/19 10:11:56;;;;;;;1.00;0.70;;;13.50;99.90;;;;;;5071819;28;20396;-71
2022/09/19 10:14:25;;;;;;;0.80;0.60;;;13.10;99.90;;;;;;5075531;28;20400;-71
2022/09/19 10:16:56;;;;;;;1.17;0.80;;;12.60;99.90;;;;;;5075164;28;20916;-71
2022/09/19 10:19:42;;;;;;;2.03;0.70;;;12.30;99.90;;;;;;5075112;28;20530;-71
2022/09/19 10:22:14;;;;;;;0.97;0.70;;;12.00;99.90;;;;;;5075289;28;20396;-71
2022/09/19 10:24:50;;;;;;;2.30;0.80;;;12.20;99.90;;;;;;5075092;28;20812;-71
2022/09/19 10:27:25;;;;;;;2.30;0.80;;;12.10;99.90;;;;;;5075593;28;20404;-69
2022/09/19 10:30:16;;;;;;;1.10;0.90;;;11.80;99.90;;;;;;5070941;28;20473;-71
2022/09/19 10:32:43;;;;;;;1.30;0.90;;;11.70;99.90;;;;;;5054982;28;20771;-71
2022/09/19 10:35:30;;;;;;;1.30;1.00;;;11.60;99.90;;;;;;5054833;28;20398;-70
2022/09/19 10:38:05;;;;;;;0.67;0.67;;;11.40;99.90;;;;;;5055131;28;21001;-70
2022/09/19 10:40:32;;;;;;;2.57;0.90;;;11.30;99.90;;;;;;5036956;28;20441;-70
2022/09/19 10:42:59;;;;;;;0.80;0.70;;;11.20;99.90;;;;;;5055084;28;20962;-70
2022/09/19 10:45:29;;;;;;;1.93;0.80;;;11.10;99.90;;;;;;5054824;28;20488;-72
2022/09/19 10:48:08;;;;;;;1.53;0.90;;;11.00;99.90;;;;;;5054927;28;20839;-71
2022/09/19 10:50:40;;;;;;;0.93;0.70;;;10.90;99.90;;;;;;5054579;28;20992;-71
2022/09/19 10:53:06;;;;;;;5.27;2.87;;;11.00;99.90;;;;;;5054862;28;20411;-70
2022/09/19 10:55:36;;;;;;;1.17;0.87;;;11.00;99.90;;;;;;5074156;28;20491;-72
2022/09/19 10:58:06;;;;;;;1.00;0.90;;;10.90;99.90;;;;;;5074525;28;20167;-71
2022/09/19 11:00:48;;;;;;;1.20;1.10;;;10.90;99.90;;;;;;5074394;28;20799;-71
2022/09/19 11:03:23;;;;;;;3.37;1.93;;;11.00;99.90;;;;;;5074422;28;20753;-72
2022/09/19 11:06:13;;;;;;;1.27;1.17;;;11.10;99.90;;;;;;5074269;28;20400;-72
2022/09/19 11:08:44;;;;;;;10.20;5.73;;;11.10;99.90;;;;;;5074269;28;20448;-72
2022/09/19 11:11:37;;;;;;;2.17;1.13;;;11.20;99.90;;;;;;5074308;28;20765;-72
2022/09/19 11:14:48;;;;;;;1.23;1.10;;;11.30;99.90;;;;;;5073990;28;20504;-72
2022/09/19 11:17:23;;;;;;;1.73;0.97;;;11.50;99.90;;;;;;5068151;28;20452;-72
2022/09/19 11:20:17;;;;;;;1.80;1.10;;;12.00;99.90;;;;;;5073188;28;20458;-72
2022/09/19 11:23:17;;;;;;;1.83;1.10;;;12.60;99.90;;;;;;5073862;28;20875;-72
2022/09/19 11:26:19;;;;;;;3.80;0.90;;;13.10;99.90;;;;;;5053734;28;20892;-70
2022/09/19 11:29:07;;;;;;;2.83;1.10;;;13.40;99.90;;;;;;5035900;28;20429;-70
2022/09/19 11:31:49;;;;;;;2.77;1.80;;;13.80;99.90;;;;;;5054010;28;20393;-71
2022/09/19 11:34:47;;;;;;;10.33;5.60;;;14.10;99.90;;;;;;5054026;28;20425;-71
2022/09/19 11:37:37;;;;;;;11.97;2.30;;;14.60;99.90;;;;;;5026948;28;20417;-71
2022/09/19 11:40:30;;;;;;;5.10;3.33;;;14.60;99.90;;;;;;5053540;28;20511;-71
2022/09/19 11:43:21;;;;;;;4.20;2.27;;;14.70;99.90;;;;;;5053531;28;20420;-71
2022/09/19 11:45:59;;;;;;;5.50;2.10;;;14.30;99.90;;;;;;5053194;28;20425;-72
2022/09/19 11:48:31;;;;;;;4.20;2.37;;;14.50;99.90;;;;;;5053268;28;20390;-72
2022/09/19 11:51:19;;;;;;;5.07;3.07;;;14.80;99.90;;;;;;5035530;28;20828;-72
2022/09/19 11:54:14;;;;;;;5.07;1.80;;;15.10;99.90;;;;;;5058275;28;20954;-72
2022/09/19 11:57:00;;;;;;;2.60;1.10;;;15.30;99.90;;;;;;5073132;28;20456;-72
2022/09/19 11:59:30;;;;;;;1.37;1.00;;;15.40;99.90;;;;;;5073076;28;20460;-72
2022/09/19 12:02:01;;;;;;;2.70;1.43;;;15.70;99.90;;;;;;5073316;28;20891;-72
2022/09/19 12:04:45;;;;;;;1.57;1.10;;;15.60;99.90;;;;;;5073160;28;20429;-72
2022/09/19 12:07:29;;;;;;;0.83;0.73;;;15.40;99.90;;;;;;5073352;28;20407;-72
2022/09/19 12:10:03;;;;;;;0.83;0.70;;;14.30;99.90;;;;;;5073158;28;20478;-71
2022/09/19 12:12:36;;;;;;;1.00;0.70;;;13.50;99.90;;;;;;5072048;28;20410;-71
2022/09/19 12:15:14;;;;;;;0.90;0.70;;;13.20;99.90;;;;;;5051158;28;20470;-72
2022/09/19 12:17:42;;;;;;;1.50;0.80;;;13.10;99.90;;;;;;5061148;28;20416;-72
2022/09/19 12:20:41;;;;;;;1.00;0.70;;;13.00;99.90;;;;;;5073027;28;20463;-71
2022/09/19 12:26:49;;;;;;;0.80;0.80;;;12.80;99.90;;;;;;5053130;28;20949;-72
2022/09/19 12:29:23;;;;;;;1.47;1.00;;;12.60;99.90;;;;;;5034977;28;20444;-71
2022/09/19 12:31:58;;;;;;;1.17;1.07;;;12.60;99.90;;;;;;5052690;28;20768;-71
2022/09/19 12:34:35;;;;;;;0.93;0.80;;;12.50;99.90;;;;;;5052671;28;20386;-72
2022/09/19 12:37:16;;;;;;;1.13;1.00;;;12.50;99.90;;;;;;5052568;28;20464;-72
2022/09/19 12:39:57;;;;;;;1.33;0.80;;;12.40;99.90;;;;;;5052453;28;20453;-72
2022/09/19 12:42:44;;;;;;;1.03;0.93;;;12.40;99.90;;;;;;5034699;28;20463;-72
2022/09/19 12:45:19;;;;;;;1.07;1.00;;;12.40;99.90;;;;;;5069756;28;20774;-72
2022/09/19 12:48:02;;;;;;;0.83;0.77;;;12.20;99.90;;;;;;5072333;28;20393;-72
2022/09/19 12:50:38;;;;;;;1.47;1.00;;;12.10;99.90;;;;;;5054230;28;20523;-72
2022/09/19 12:53:24;;;;;;;1.60;0.97;;;12.10;99.90;;;;;;5072184;28;20831;-72
2022/09/19 12:55:56;;;;;;;1.23;1.00;;;12.10;99.90;;;;;;5051843;28;20409;-71
2022/09/19 12:58:32;;;;;;;2.10;1.07;;;12.00;99.90;;;;;;5051553;28;20401;-71
2022/09/19 13:01:26;;;;;;;2.70;1.50;;;12.10;99.90;;;;;;5051751;28;20401;-72
2022/09/19 13:04:30;;;;;;;2.47;1.50;;;12.10;99.90;;;;;;5049393;28;20425;-71
2022/09/19 13:07:09;;;;;;;2.03;1.37;;;11.90;99.90;;;;;;5051515;28;20409;-71
2022/09/19 13:09:50;;;;;;;1.27;0.87;;;11.90;99.90;;;;;;5051596;28;20456;-71
2022/09/19 13:12:27;;;;;;;1.37;1.13;;;11.90;99.90;;;;;;5051659;28;20416;-71
2022/09/19 13:15:04;;;;;;;2.23;1.10;;;11.70;99.90;;;;;;5051647;28;20896;-71
2022/09/19 13:23:32;;;;;;;1.60;1.37;;;11.90;99.90;;;;;;5072091;28;20408;-72
2022/09/19 13:26:17;;;;;;;1.10;1.00;;;12.00;99.90;;;;;;5051041;28;20819;-71
2022/09/19 13:28:51;;;;;;;1.67;1.20;;;12.10;99.90;;;;;;5051596;28;20449;-72
2022/09/19 13:31:18;;;;;;;1.50;1.03;;;12.10;99.90;;;;;;5051269;28;20781;-72
2022/09/19 13:33:50;;;;;;;1.60;1.50;;;12.10;99.90;;;;;;5051576;28;20408;-71
2022/09/19 13:36:23;;;;;;;1.33;0.93;;;12.20;99.90;;;;;;5050914;28;20402;-71
2022/09/19 13:38:58;;;;;;;5.70;1.10;;;12.00;99.90;;;;;;5050981;28;20606;-71
2022/09/19 13:41:42;;;;;;;1.43;1.13;;;12.00;99.90;;;;;;5033148;28;20806;-71
2022/09/19 13:44:08;;;;;;;1.97;1.10;;;12.10;99.90;;;;;;5064995;28;20955;-71
2022/09/19 13:46:56;;;;;;;1.23;1.13;;;12.10;99.90;;;;;;5069958;28;20479;-71